Time;durP1;ratioP1;P1;durP2;ratioP2;P2;SDS_P1;SDS_P2;PMS_P1;PMS_P2;Temp;Humidity;BMP_temperature;BMP_pressure;BME280_temperature;BME280_humidity;BME280_pressure;Samples;Min_cycle;Max_cycle;Signal;HPM_P1;HPM_P2
2022/03/17 00:00:30;;;;;;;;;;;;;;;4.91;66.64;102212.06;6170777;23;1493;-96
2022/03/17 00:02:57;;;;;;;;;;;;;;;4.91;66.50;102216.53;6171189;23;1380;-96
2022/03/17 00:05:23;;;;;;;;;;;;;;;4.89;66.54;102214.03;6170971;23;1187;-96
2022/03/17 00:07:50;;;;;;;;;;;;;;;4.92;66.59;102210.25;6171535;23;1314;-96
2022/03/17 00:10:16;;;;;;;;;;;;;;;4.92;66.52;102204.91;6171645;23;1272;-96
2022/03/17 00:12:44;;;;;;;;;;;;;;;4.91;66.58;102200.53;6178410;23;2057;-96
2022/03/17 00:15:10;;;;;;;;;;;;;;;4.89;66.75;102202.50;6232245;23;1254;-96
2022/03/17 00:17:37;;;;;;;;;;;;;;;4.90;66.68;102212.19;6230988;23;1167;-96
2022/03/17 00:20:07;;;;;;;;;;;;;;;4.90;66.57;102209.53;6231119;23;1419;-96
2022/03/17 00:22:33;;;;;;;;;;;;;;;4.91;66.62;102200.53;6230854;23;1191;-96
2022/03/17 00:25:00;;;;;;;;;;;;;;;4.92;66.55;102199.56;6230777;23;1160;-96
2022/03/17 00:27:27;;;;;;;;;;;;;;;4.92;66.52;102192.38;6232021;23;1301;-96
2022/03/17 00:29:54;;;;;;;;;;;;;;;4.90;66.72;102189.00;6231082;23;1353;-96
2022/03/17 00:32:20;;;;;;;;;;;;;;;4.90;66.50;102191.69;6230736;23;1231;-96
2022/03/17 00:37:31;;;;;;;;;;;;;;;4.89;66.70;102187.34;6231988;23;1202;-96
2022/03/17 00:39:58;;;;;;;;;;;;;;;4.91;66.56;102179.16;6232822;23;1350;-96
2022/03/17 00:42:24;;;;;;;;;;;;;;;4.90;66.71;102174.81;6233347;23;1395;-96
2022/03/17 00:44:52;;;;;;;;;;;;;;;4.90;66.61;102173.00;6233071;23;1219;-96
2022/03/17 00:50:30;;;;;;;;;;;;;;;4.89;66.84;102175.81;6264686;22;713;-96
2022/03/17 00:53:01;;;;;;;;;;;;;;;4.90;66.56;102169.47;6232945;23;1905;-96
2022/03/17 00:55:28;;;;;;;;;;;;;;;4.90;66.46;102169.47;6233300;23;1294;-96
2022/03/17 00:57:54;;;;;;;;;;;;;;;4.88;66.68;102158.97;6234237;23;1193;-96
2022/03/17 01:00:21;;;;;;;;;;;;;;;4.91;66.52;102157.81;6233053;23;1237;-96
2022/03/17 01:02:47;;;;;;;;;;;;;;;4.89;66.64;102154.47;6233547;23;1210;-96
2022/03/17 01:45:49;;;;;;;;;;;;;;;4.85;66.90;102143.19;6126693;23;945;-96
2022/03/17 02:37:16;;;;;;;;;;;;;;;4.81;66.78;102119.63;6253123;23;1562;-96
2022/03/17 02:40:09;;;;;;;;;;;;;;;4.81;66.88;102112.44;6251213;23;766;-96
2022/03/17 02:46:08;;;;;;;;;;;;;;;4.78;66.97;102099.38;6271429;23;789;-96
2022/03/17 02:49:06;;;;;;;;;;;;;;;4.77;66.99;102087.88;6271382;23;605;-96
2022/03/17 02:55:08;;;;;;;;;;;;;;;4.77;66.91;102082.53;6271576;23;1895;-96
2022/03/17 03:01:12;;;;;;;;;;;;;;;4.76;66.96;102090.66;6270904;23;1294;-96
2022/03/17 03:03:47;;;;;;;;;;;;;;;4.74;67.07;102074.81;6244193;23;1389;-96
2022/03/17 03:06:20;;;;;;;;;;;;;;;4.76;66.91;102077.31;6245009;23;972;-96
2022/03/17 03:08:48;;;;;;;;;;;;;;;4.75;66.89;102065.81;6245083;23;1435;-96
2022/03/17 03:11:17;;;;;;;;;;;;;;;4.75;66.94;102064.97;6244642;23;1518;-96
2022/03/17 03:16:30;;;;;;;;;;;;;;;4.73;67.04;102058.94;6271164;23;850;-96
2022/03/17 03:21:50;;;;;;;;;;;;;;;4.74;66.98;102041.94;6241473;23;1563;-96
2022/03/17 03:24:19;;;;;;;;;;;;;;;4.73;66.94;102046.41;6245396;23;1250;-96
2022/03/17 03:29:36;;;;;;;;;;;;;;;4.72;67.02;102039.41;6271053;23;1100;-96
2022/03/17 03:37:33;;;;;;;;;;;;;;;4.70;67.14;102030.69;6269497;23;1470;-96
2022/03/17 03:42:55;;;;;;;;;;;;;;;4.72;66.83;102019.88;6266767;23;912;-96
2022/03/17 03:48:07;;;;;;;;;;;;;;;4.68;66.89;102011.34;6245919;23;1307;-96
2022/03/17 03:56:02;;;;;;;;;;;;;;;4.68;66.79;102023.84;6244563;23;1458;-96
2022/03/17 03:58:43;;;;;;;;;;;;;;;4.70;67.09;102036.03;6246591;23;1288;-96
2022/03/17 04:01:19;;;;;;;;;;;;;;;4.68;67.13;102038.03;6271549;23;873;-96
2022/03/17 04:09:08;;;;;;;;;;;;;;;4.66;67.11;102034.66;6245689;23;1304;-96
2022/03/17 04:12:00;;;;;;;;;;;;;;;4.64;67.13;102031.28;6271549;23;585;-96
2022/03/17 04:14:31;;;;;;;;;;;;;;;4.64;67.01;102031.28;6246419;23;1924;-96
2022/03/17 04:19:47;;;;;;;;;;;;;;;4.64;67.10;102036.63;6244707;23;1360;-96
2022/03/17 04:22:18;;;;;;;;;;;;;;;4.65;67.00;102037.47;6246731;23;1324;-96
2022/03/17 04:24:47;;;;;;;;;;;;;;;4.63;67.07;102037.63;6247976;23;1275;-96
2022/03/17 04:27:20;;;;;;;;;;;;;;;4.63;67.00;102034.94;6246026;23;1501;-96
2022/03/17 04:29:52;;;;;;;;;;;;;;;4.65;67.08;102037.47;6247366;23;1666;-96
2022/03/17 04:32:26;;;;;;;;;;;;;;;4.64;67.14;102049.13;6273148;23;835;-96
2022/03/17 04:37:46;;;;;;;;;;;;;;;4.64;67.05;102039.28;6272871;23;1057;-96
2022/03/17 04:40:18;;;;;;;;;;;;;;;4.63;67.06;102044.78;6272993;23;1108;-97
2022/03/17 04:42:50;;;;;;;;;;;;;;;4.63;66.96;102048.28;6246214;23;1520;-96
2022/03/17 04:47:59;;;;;;;;;;;;;;;4.65;66.88;102024.97;6272179;23;1076;-96
2022/03/17 04:50:41;;;;;;;;;;;;;;;4.64;66.96;102020.59;6247057;23;1110;-96
2022/03/17 05:01:23;;;;;;;;;;;;;;;4.67;66.83;102014.13;6273689;23;920;-96
2022/03/17 05:04:00;;;;;;;;;;;;;;;4.67;66.52;102006.97;6273138;23;892;-96
2022/03/17 05:12:20;;;;;;;;;;;;;;;4.69;66.59;102006.84;6273150;23;601;-96
2022/03/17 05:15:22;;;;;;;;;;;;;;;4.69;66.64;101989.00;6272574;23;1873;-96
2022/03/17 05:21:28;;;;;;;;;;;;;;;4.71;66.56;101989.69;6272473;23;1401;-96
2022/03/17 05:27:27;;;;;;;;;;;;;;;4.72;66.47;101994.03;6273729;23;793;-96
2022/03/17 05:30:22;;;;;;;;;;;;;;;4.74;66.36;102000.06;6252534;23;734;-96
2022/03/17 05:33:21;;;;;;;;;;;;;;;4.77;66.49;101999.78;6251990;23;821;-96
2022/03/17 05:39:20;;;;;;;;;;;;;;;4.75;66.40;101990.25;6273670;23;786;-96
2022/03/17 05:48:36;;;;;;;;;;;;;;;4.78;66.20;101977.44;6272558;23;794;-96
2022/03/17 05:51:13;;;;;;;;;;;;;;;4.80;66.29;101976.47;6245439;23;1245;-96
2022/03/17 06:01:58;;;;;;;;;;;;;;;4.76;66.36;101966.09;6248091;23;1254;-96
2022/03/17 06:07:14;;;;;;;;;;;;;;;4.76;66.44;101966.09;6246442;23;1059;-96
2022/03/17 06:09:42;;;;;;;;;;;;;;;4.82;66.19;101967.28;6245601;23;1287;-96
2022/03/17 06:14:54;;;;;;;;;;;;;;;4.79;66.26;101954.25;6244182;23;1916;-96
2022/03/17 06:17:28;;;;;;;;;;;;;;;4.77;66.19;101943.72;6245778;23;1457;-96
2022/03/17 06:20:09;;;;;;;;;;;;;;;4.77;66.40;101938.38;6264864;23;981;-96
2022/03/17 06:22:52;;;;;;;;;;;;;;;4.78;66.30;101926.72;6271480;23;1059;-96
2022/03/17 06:25:25;;;;;;;;;;;;;;;4.77;66.26;101927.72;6245842;23;1456;-96
2022/03/17 06:27:58;;;;;;;;;;;;;;;4.77;66.32;101919.72;6246340;23;1320;-96
2022/03/17 06:30:25;;;;;;;;;;;;;;;4.76;66.58;101927.84;6234844;23;1293;-96
2022/03/17 07:32:26;;;;;;;;;;;;;;;4.73;66.46;101912.13;6231302;23;1735;-96
2022/03/17 07:35:25;;;;;;;;;;;;;;;4.70;66.51;101923.09;6240456;23;1946;-96
2022/03/17 07:38:29;;;;;;;;;;;;;;;4.71;66.38;101933.66;6241321;23;640;-96
2022/03/17 07:41:22;;;;;;;;;;;;;;;4.70;66.46;101923.09;6240608;23;581;-96
2022/03/17 07:44:15;;;;;;;;;;;;;;;4.71;66.55;101914.13;6241493;23;763;-96
2022/03/17 07:47:09;;;;;;;;;;;;;;;4.68;66.41;101907.25;6237155;23;593;-96
2022/03/17 07:50:05;;;;;;;;;;;;;;;4.71;66.47;101911.47;6233331;23;589;-96
2022/03/17 07:53:01;;;;;;;;;;;;;;;4.68;66.69;101903.75;6233539;23;771;-96
2022/03/17 07:55:30;;;;;;;;;;;;;;;4.68;66.65;101911.75;6207110;23;1942;-96
2022/03/17 07:58:00;;;;;;;;;;;;;;;4.70;66.62;101905.25;6207788;23;1330;-96
2022/03/17 08:00:28;;;;;;;;;;;;;;;4.69;66.59;101900.09;6204810;23;1387;-96
2022/03/17 08:03:01;;;;;;;;;;;;;;;4.69;66.62;101908.91;6203245;23;1274;-96
2022/03/17 08:05:34;;;;;;;;;;;;;;;4.69;66.61;101913.44;6208180;23;1225;-96
2022/03/17 08:08:05;;;;;;;;;;;;;;;4.69;66.55;101908.91;6210965;23;1221;-96
2022/03/17 08:10:33;;;;;;;;;;;;;;;4.68;66.50;101912.59;6187182;23;1430;-96
2022/03/17 08:13:06;;;;;;;;;;;;;;;4.71;66.47;101904.28;6237121;23;865;-96
2022/03/17 08:15:33;;;;;;;;;;;;;;;4.68;66.57;101907.25;6208608;23;1926;-96
2022/03/17 08:18:05;;;;;;;;;;;;;;;4.69;66.36;101903.59;6210235;23;1298;-96
2022/03/17 08:20:36;;;;;;;;;;;;;;;4.71;66.53;101900.78;6211058;23;1320;-96
2022/03/17 08:23:06;;;;;;;;;;;;;;;4.69;66.55;101884.91;6209440;23;1109;-96
2022/03/17 08:25:45;;;;;;;;;;;;;;;4.72;66.51;101881.09;6233880;23;984;-96
2022/03/17 08:28:19;;;;;;;;;;;;;;;4.71;66.57;101880.25;6211297;23;1413;-96
2022/03/17 08:30:55;;;;;;;;;;;;;;;4.74;66.38;101879.97;6210310;23;1405;-96
2022/03/17 08:33:23;;;;;;;;;;;;;;;4.73;66.50;101869.41;6207391;23;1450;-96
2022/03/17 08:38:30;;;;;;;;;;;;;;;4.73;66.32;101874.75;6208708;23;1514;-96
2022/03/17 08:41:00;;;;;;;;;;;;;;;4.73;66.53;101869.41;6209554;23;1264;-96
2022/03/17 08:43:31;;;;;;;;;;;;;;;4.73;66.33;101864.09;6210332;23;1436;-96
2022/03/17 08:51:38;;;;;;;;;;;;;;;4.78;66.21;101854.63;6207363;23;1341;-96
2022/03/17 08:54:09;;;;;;;;;;;;;;;4.76;66.21;101853.09;6207105;23;1923;-96
2022/03/17 08:56:41;;;;;;;;;;;;;;;4.77;66.03;101844.97;6209584;23;1298;-96
2022/03/17 08:59:15;;;;;;;;;;;;;;;4.78;66.10;101846.63;6211190;23;1437;-96
2022/03/17 09:01:45;;;;;;;;;;;;;;;4.77;66.17;101852.13;6186464;23;1240;-96
2022/03/17 09:04:14;;;;;;;;;;;;;;;4.78;66.28;101840.47;6211598;23;1318;-96
2022/03/17 09:06:43;;;;;;;;;;;;;;;4.82;66.01;101838.31;6212146;23;1347;-96
2022/03/17 09:09:13;;;;;;;;;;;;;;;4.85;66.07;101830.84;6208427;23;1232;-96
2022/03/17 09:11:51;;;;;;;;;;;;;;;4.82;66.10;101833.81;6187849;23;1265;-96
2022/03/17 09:14:22;;;;;;;;;;;;;;;4.84;66.15;101831.00;6211176;23;1911;-96
2022/03/17 09:19:38;;;;;;;;;;;;;;;4.86;65.99;101813.84;6207429;23;1362;-96
2022/03/17 09:24:52;;;;;;;;;;;;;;;4.89;65.90;101807.38;6208358;23;1276;-96
2022/03/17 09:30:04;;;;;;;;;;;;;;;4.89;66.01;101797.53;6211605;23;1399;-97
2022/03/17 09:32:33;;;;;;;;;;;;;;;4.89;65.85;101802.03;6183438;23;1372;-96
2022/03/17 09:35:05;;;;;;;;;;;;;;;4.90;65.93;101798.38;6176091;23;1928;-96
2022/03/17 09:37:33;;;;;;;;;;;;;;;4.89;66.15;101788.69;6176344;23;1339;-96
2022/03/17 09:40:01;;;;;;;;;;;;;;;4.89;65.82;101791.38;6175867;23;1186;-96
2022/03/17 09:42:32;;;;;;;;;;;;;;;4.93;65.89;101790.88;6180626;23;1354;-96
2022/03/17 09:45:00;;;;;;;;;;;;;;;4.92;66.03;101789.22;6177886;23;1248;-96
2022/03/17 09:50:14;;;;;;;;;;;;;;;4.95;65.96;101778.25;6176256;23;1275;-96
2022/03/17 09:52:44;;;;;;;;;;;;;;;4.99;65.76;101768.91;6181239;23;1450;-96
2022/03/17 09:55:16;;;;;;;;;;;;;;;4.97;65.90;101773.59;6176759;23;1873;-96
2022/03/17 09:57:43;;;;;;;;;;;;;;;4.99;65.96;101770.75;6178831;23;1286;-96
2022/03/17 10:00:12;;;;;;;;;;;;;;;5.00;65.83;101762.59;6180240;23;1433;-96
2022/03/17 10:02:41;;;;;;;;;;;;;;;4.96;65.79;101752.38;6180393;23;1099;-96
2022/03/17 10:05:11;;;;;;;;;;;;;;;4.98;65.74;101755.72;6206710;23;842;-96
2022/03/17 10:07:39;;;;;;;;;;;;;;;4.99;65.85;101750.22;6180760;23;1571;-96
2022/03/17 10:10:07;;;;;;;;;;;;;;;5.02;65.87;101746.41;6179686;23;1228;-96
2022/03/17 10:12:35;;;;;;;;;;;;;;;5.00;65.84;101735.91;6179904;23;1308;-96
2022/03/17 10:15:09;;;;;;;;;;;;;;;5.04;65.82;101738.25;6178916;23;1917;-96
2022/03/17 10:17:37;;;;;;;;;;;;;;;5.03;65.84;101733.91;6204627;23;1028;-96
2022/03/17 10:20:05;;;;;;;;;;;;;;;5.04;65.77;101730.25;6178592;23;1252;-96
2022/03/17 10:22:35;;;;;;;;;;;;;;;5.04;65.75;101724.91;6179738;23;1352;-96
2022/03/17 10:25:04;;;;;;;;;;;;;;;5.05;65.99;101729.25;6180209;23;1299;-96
2022/03/17 10:27:34;;;;;;;;;;;;;;;5.06;65.64;101725.56;6177299;23;1363;-96
2022/03/17 10:30:01;;;;;;;;;;;;;;;5.07;65.66;101724.59;6178024;23;1185;-96
2022/03/17 10:32:29;;;;;;;;;;;;;;;5.08;65.76;101723.59;6200780;23;1430;-96
2022/03/17 10:35:00;;;;;;;;;;;;;;;5.07;65.82;101728.09;6209866;23;1908;-96
2022/03/17 10:37:30;;;;;;;;;;;;;;;5.03;65.92;101721.41;6209003;23;1291;-96
2022/03/17 10:39:57;;;;;;;;;;;;;;;5.03;65.93;101713.41;6208426;23;1295;-96
2022/03/17 10:42:28;;;;;;;;;;;;;;;5.04;65.93;101715.06;6233370;23;1001;-96
2022/03/17 10:44:58;;;;;;;;;;;;;;;5.06;65.91;101707.75;6202765;23;1184;-96
2022/03/17 10:47:25;;;;;;;;;;;;;;;5.07;65.90;101704.06;6265151;23;955;-96
2022/03/17 10:49:58;;;;;;;;;;;;;;;5.05;66.03;101702.53;6239578;23;1287;-96
2022/03/17 10:52:28;;;;;;;;;;;;;;;5.07;66.01;101695.22;6239327;23;1314;-96
2022/03/17 10:54:55;;;;;;;;;;;;;;;5.05;66.10;101694.53;6238129;23;1901;-96
2022/03/17 10:57:24;;;;;;;;;;;;;;;5.06;65.85;101702.41;6237262;23;1245;-96
2022/03/17 10:59:51;;;;;;;;;;;;;;;5.08;66.02;101692.38;6239790;23;1164;-96
2022/03/17 11:02:24;;;;;;;;;;;;;;;5.08;66.01;101696.88;6234425;23;1540;-96
2022/03/17 11:04:55;;;;;;;;;;;;;;;5.08;66.00;101687.03;6237481;23;1218;-96
2022/03/17 11:07:23;;;;;;;;;;;;;;;5.08;65.60;101676.34;6241036;23;1396;-96
2022/03/17 11:09:57;;;;;;;;;;;;;;;5.10;65.84;101676.22;6241414;23;1334;-96
2022/03/17 11:12:26;;;;;;;;;;;;;;;5.10;65.99;101665.53;6241087;23;1380;-96
2022/03/17 11:14:59;;;;;;;;;;;;;;;5.11;65.76;101668.03;6241668;23;1877;-96
2022/03/17 11:17:28;;;;;;;;;;;;;;;5.10;66.00;101647.69;6241767;23;1159;-96
2022/03/17 11:20:05;;;;;;;;;;;;;;;5.12;65.81;101643.03;6241086;23;1407;-96
2022/03/17 11:22:37;;;;;;;;;;;;;;;5.11;65.91;101640.50;6241487;23;1282;-96
2022/03/17 11:25:06;;;;;;;;;;;;;;;5.12;65.97;101631.50;6215923;23;1305;-96
2022/03/17 11:27:35;;;;;;;;;;;;;;;5.09;66.14;101621.13;6240378;23;1450;-96
2022/03/17 11:30:07;;;;;;;;;;;;;;;5.08;66.17;101617.59;6216816;23;1151;-96
2022/03/17 11:35:38;;;;;;;;;;;;;;;5.09;66.10;101605.09;6207416;23;1881;-96
2022/03/17 11:38:14;;;;;;;;;;;;;;;5.10;66.06;101604.94;6232752;23;1438;-96
2022/03/17 11:40:57;;;;;;;;;;;;;;;5.12;66.08;101600.28;6206055;23;1160;-96
2022/03/17 11:43:31;;;;;;;;;;;;;;;5.10;66.00;101598.78;6182359;23;1346;-96
2022/03/17 11:46:04;;;;;;;;;;;;;;;5.11;66.08;101601.28;6208073;23;924;-96
2022/03/17 11:59:22;;;;;;;;;;;;;;;5.11;66.07;101592.44;6180767;23;1422;-96
2022/03/17 12:01:50;;;;;;;;;;;;;;;5.12;66.07;101592.28;6231764;23;1293;-96
2022/03/17 12:04:20;;;;;;;;;;;;;;;5.13;65.97;101590.44;6232003;23;1333;-96
2022/03/17 12:06:56;;;;;;;;;;;;;;;5.13;66.04;101587.78;6206876;23;1470;-96
2022/03/17 12:09:27;;;;;;;;;;;;;;;5.14;66.00;101584.94;6232309;23;1441;-96
2022/03/17 12:14:45;;;;;;;;;;;;;;;5.12;66.10;101557.56;6230943;23;1591;-96
2022/03/17 12:17:16;;;;;;;;;;;;;;;5.14;66.16;101554.72;6231430;23;1075;-96
2022/03/17 12:19:48;;;;;;;;;;;;;;;5.12;66.05;101559.41;6205921;23;1212;-96
2022/03/17 12:22:39;;;;;;;;;;;;;;;5.13;66.24;101550.38;6236673;22;1666;-96
2022/03/17 12:25:14;;;;;;;;;;;;;;;5.14;66.21;101544.03;6201594;23;1431;-96
2022/03/17 12:27:51;;;;;;;;;;;;;;;5.13;66.21;101540.53;6236126;22;1099;-96
2022/03/17 12:30:33;;;;;;;;;;;;;;;5.13;66.08;101529.03;6237740;22;1147;-96
2022/03/17 12:33:06;;;;;;;;;;;;;;;5.13;66.05;101527.19;6210314;23;1077;-96
2022/03/17 12:35:48;;;;;;;;;;;;;;;5.13;66.22;101521.84;6210828;23;1905;-96
2022/03/17 12:38:39;;;;;;;;;;;;;;;5.13;66.27;101513.00;6209565;23;1060;-96
2022/03/17 12:41:25;;;;;;;;;;;;;;;5.13;66.24;101504.97;6211127;23;1314;-96
2022/03/17 12:44:00;;;;;;;;;;;;;;;5.15;66.07;101508.34;6212741;23;1280;-96
2022/03/17 12:46:32;;;;;;;;;;;;;;;5.16;66.02;101510.84;6209753;23;1588;-96
2022/03/17 12:49:08;;;;;;;;;;;;;;;5.15;66.11;101495.00;6212687;23;1358;-96
2022/03/17 12:51:41;;;;;;;;;;;;;;;5.14;66.28;101503.97;6212726;23;1259;-96
2022/03/17 12:54:10;;;;;;;;;;;;;;;5.15;66.32;101503.00;6212610;23;1322;-96
2022/03/17 12:56:41;;;;;;;;;;;;;;;5.17;66.29;101495.66;6211988;23;1968;-96
2022/03/17 12:59:09;;;;;;;;;;;;;;;5.14;66.26;101491.47;6208989;23;1419;-96
2022/03/17 13:01:39;;;;;;;;;;;;;;;5.15;66.20;101484.31;6234772;23;1153;-96
2022/03/17 13:07:04;;;;;;;;;;;;;;;5.17;66.28;101477.78;6239396;23;869;-96
2022/03/17 13:09:32;;;;;;;;;;;;;;;5.17;66.19;101468.94;6215050;23;1572;-96
2022/03/17 13:17:41;;;;;;;;;;;;;;;5.19;66.16;101453.59;6240149;23;1192;-96
2022/03/17 13:20:14;;;;;;;;;;;;;;;5.19;66.25;101446.41;6214791;23;1386;-96
2022/03/17 13:22:55;;;;;;;;;;;;;;;5.17;66.35;101429.72;6272299;23;1133;-96
2022/03/17 13:28:22;;;;;;;;;;;;;;;5.15;66.42;101418.38;6272852;23;873;-96
2022/03/17 13:41:52;;;;;;;;;;;;;;;5.18;66.17;101425.22;6247613;23;1293;-96
2022/03/17 13:44:38;;;;;;;;;;;;;;;5.18;66.17;101412.69;6242881;23;1622;-96
2022/03/17 13:52:41;;;;;;;;;;;;;;;5.20;66.09;101404.50;6245726;23;1671;-96
